Olib — 9AA6266 — position and weather

sailwx.info

Track history (hours):
 
Tides and Currents Weather Stations Pressure Air Temp Water Temp Dewpoint Dewpoint Depression Visibility Wind Speed Wind Dir Waves Ship Positions

Olib

Last reported at 2015-May-22 02:30 UTC. Time now 2015-May-22 14:38 UTC.
Position N 36°35' E 023°23'.

Length 247 m.

Type: Ship (hazmat cat C). MMSI: 238252000.

Date/timePositionNaut miles runAvg speedWind from/ knotsBaromVisibWave heightAir tempDewpointWater temp
2015-May-22 02:30N 36°35' E 023°23'1112.0
2015-May-22 01:33N 36°45' E 023°30'1211.9
2015-May-22 00:33N 36°55' E 023°37'1212.0
2015-May-21 23:33N 37°06' E 023°45'1212.0
2015-May-21 22:34N 37°16' E 023°53'1412.2
2015-May-21 21:25N 37°27' E 024°03'2711.5
2015-May-21 19:04N 37°49' E 024°24'  
2015-May-19 10:30N 43°05' E 033°39'1212.1
2015-May-19 09:31N 43°10' E 033°54'2612.1
2015-May-19 07:24N 43°22' E 034°25'1112.7
2015-May-19 06:33N 43°27' E 034°38'1312.6
2015-May-19 05:34N 43°33' E 034°54'1312.6
2015-May-19 04:33N 43°39' E 035°09'1312.6
2015-May-19 03:29N 43°44' E 035°26'1212.6
2015-May-19 02:33N 43°49' E 035°41'1312.5
2015-May-19 01:33N 43°54' E 035°57'1212.2
2015-May-19 00:34N 44°00' E 036°12'1312.6
2015-May-18 23:33N 44°06' E 036°27'1312.6
2015-May-18 22:34N 44°12' E 036°42'1212.1
2015-May-18 21:33N 44°17' E 036°58'1212.1
2015-May-18 20:33N 44°22' E 037°13'1212.4
2015-May-18 19:33N 44°27' E 037°29'1211.7
2015-May-18 18:32N 44°35' E 037°42'1 1.5
2015-May-18 17:31N 44°36' E 037°43'0 0.3
2015-May-18 16:31N 44°36' E 037°44'0 0.3
2015-May-18 15:26N 44°36' E 037°44'1 1.2
2015-May-18 14:32N 44°36' E 037°43'0 0.3
2015-May-18 13:32N 44°36' E 037°43'2 2.0
2015-May-18 12:33N 44°37' E 037°40'1 0.1
2015-May-17 21:29N 44°37' E 037°39'3 3.4
2015-May-17 20:34N 44°35' E 037°42'8 8.0
2015-May-17 19:34N 44°34' E 037°53'1 1.1
2015-May-17 18:31N 44°35' E 037°54'0 0.1
2015-May-17 17:25N 44°35' E 037°55'0 0.0
2015-May-17 16:31N 44°35' E 037°55'0 0.0
2015-May-17 15:31N 44°35' E 037°55'0 0.0
2015-May-17 14:31N 44°35' E 037°55'0 0.0
2015-May-17 13:31N 44°35' E 037°55'0 0.0
2015-May-17 12:31N 44°35' E 037°55'0 0.0
2015-May-17 11:31N 44°35' E 037°55'0 0.1
2015-May-17 10:28N 44°35' E 037°55'5 5.7
2015-May-17 09:33N 44°35' E 037°47'4 3.5
2015-May-17 08:25N 44°37' E 037°43'0 0.3
2015-May-17 07:31N 44°37' E 037°43'1 0.8
2015-May-17 06:33N 44°37' E 037°42'7 6.6
2015-May-17 05:33N 44°31' E 037°38'3 3.3
2015-May-17 04:31N 44°27' E 037°38'3 3.2
2015-May-17 03:33N 44°26' E 037°34'1211.7
2015-May-17 02:33N 44°20' E 037°20'8011.4
2015-May-16 19:33N 43°49' E 035°38'1311.6
2015-May-16 18:27N 43°44' E 035°21'1311.6
2015-May-16 17:20N 43°39' E 035°05'1111.8
2015-May-16 16:24N 43°35' E 034°51'1011.6
2015-May-16 15:32N 43°31' E 034°38'1311.4
2015-May-16 14:22N 43°26' E 034°21'  
Track history (hours):
 
Tides and Currents Weather Stations Pressure Air Temp Water Temp Dewpoint Dewpoint Depression Visibility Wind Speed Wind Dir Waves Ship Positions

Olib

Last reported at 2015-May-22 02:30 UTC. Time now 2015-May-22 14:38 UTC.
Position N 36°35' E 023°23'.

Length 247 m.

Type: Ship (hazmat cat C). MMSI: 238252000.

Date/timePositionNaut miles runAvg speedWind from/ knotsBaromVisibWave heightAir tempDewpointWater temp
2015-May-22 02:30N 36°35' E 023°23'1112.0
2015-May-22 01:33N 36°45' E 023°30'1211.9
2015-May-22 00:33N 36°55' E 023°37'1212.0
2015-May-21 23:33N 37°06' E 023°45'1212.0
2015-May-21 22:34N 37°16' E 023°53'1412.2
2015-May-21 21:25N 37°27' E 024°03'2711.5
2015-May-21 19:04N 37°49' E 024°24'  
2015-May-19 10:30N 43°05' E 033°39'1212.1
2015-May-19 09:31N 43°10' E 033°54'2612.1
2015-May-19 07:24N 43°22' E 034°25'1112.7
2015-May-19 06:33N 43°27' E 034°38'1312.6
2015-May-19 05:34N 43°33' E 034°54'1312.6
2015-May-19 04:33N 43°39' E 035°09'1312.6
2015-May-19 03:29N 43°44' E 035°26'1212.6
2015-May-19 02:33N 43°49' E 035°41'1312.5
2015-May-19 01:33N 43°54' E 035°57'1212.2
2015-May-19 00:34N 44°00' E 036°12'1312.6
2015-May-18 23:33N 44°06' E 036°27'1312.6
2015-May-18 22:34N 44°12' E 036°42'1212.1
2015-May-18 21:33N 44°17' E 036°58'1212.1
2015-May-18 20:33N 44°22' E 037°13'1212.4
2015-May-18 19:33N 44°27' E 037°29'1211.7
2015-May-18 18:32N 44°35' E 037°42'1 1.5
2015-May-18 17:31N 44°36' E 037°43'0 0.3
2015-May-18 16:31N 44°36' E 037°44'0 0.3
2015-May-18 15:26N 44°36' E 037°44'1 1.2
2015-May-18 14:32N 44°36' E 037°43'0 0.3
2015-May-18 13:32N 44°36' E 037°43'2 2.0
2015-May-18 12:33N 44°37' E 037°40'1 0.1
2015-May-17 21:29N 44°37' E 037°39'3 3.4
2015-May-17 20:34N 44°35' E 037°42'8 8.0
2015-May-17 19:34N 44°34' E 037°53'1 1.1
2015-May-17 18:31N 44°35' E 037°54'0 0.1
2015-May-17 17:25N 44°35' E 037°55'0 0.0
2015-May-17 16:31N 44°35' E 037°55'0 0.0
2015-May-17 15:31N 44°35' E 037°55'0 0.0
2015-May-17 14:31N 44°35' E 037°55'0 0.0
2015-May-17 13:31N 44°35' E 037°55'0 0.0
2015-May-17 12:31N 44°35' E 037°55'0 0.0
2015-May-17 11:31N 44°35' E 037°55'0 0.1
2015-May-17 10:28N 44°35' E 037°55'5 5.7
2015-May-17 09:33N 44°35' E 037°47'4 3.5
2015-May-17 08:25N 44°37' E 037°43'0 0.3
2015-May-17 07:31N 44°37' E 037°43'1 0.8
2015-May-17 06:33N 44°37' E 037°42'7 6.6
2015-May-17 05:33N 44°31' E 037°38'3 3.3
2015-May-17 04:31N 44°27' E 037°38'3 3.2
2015-May-17 03:33N 44°26' E 037°34'1211.7
2015-May-17 02:33N 44°20' E 037°20'8011.4
2015-May-16 19:33N 43°49' E 035°38'1311.6
2015-May-16 18:27N 43°44' E 035°21'1311.6
2015-May-16 17:20N 43°39' E 035°05'1111.8
2015-May-16 16:24N 43°35' E 034°51'1011.6
2015-May-16 15:32N 43°31' E 034°38'1311.4
2015-May-16 14:22N 43°26' E 034°21'  

Dump ship's entire track history